sensor_id;sensor_type;location;lat;lon;timestamp;P1;durP1;ratioP1;P2;durP2;ratioP2
13605;SDS011;6874;52.084;5.090;2023-04-25T00:01:03;7.60;;;7.40;;
13605;SDS011;6874;52.084;5.090;2023-04-25T00:03:30;7.83;;;7.63;;
13605;SDS011;6874;52.084;5.090;2023-04-25T00:05:56;7.90;;;7.70;;
13605;SDS011;6874;52.084;5.090;2023-04-25T00:08:26;7.40;;;7.20;;
13605;SDS011;6874;52.084;5.090;2023-04-25T00:10:52;8.10;;;7.90;;
13605;SDS011;6874;52.084;5.090;2023-04-25T00:13:18;7.87;;;7.67;;
13605;SDS011;6874;52.084;5.090;2023-04-25T00:15:44;8.50;;;8.20;;
13605;SDS011;6874;52.084;5.090;2023-04-25T00:18:11;7.80;;;7.60;;
13605;SDS011;6874;52.084;5.090;2023-04-25T00:20:36;8.10;;;7.90;;
13605;SDS011;6874;52.084;5.090;2023-04-25T00:23:02;7.87;;;7.67;;
13605;SDS011;6874;52.084;5.090;2023-04-25T00:25:27;8.00;;;7.80;;
13605;SDS011;6874;52.084;5.090;2023-04-25T00:27:53;7.80;;;7.60;;
13605;SDS011;6874;52.084;5.090;2023-04-25T00:30:19;7.50;;;7.30;;
13605;SDS011;6874;52.084;5.090;2023-04-25T00:32:45;8.00;;;7.80;;
13605;SDS011;6874;52.084;5.090;2023-04-25T00:35:11;8.23;;;8.03;;
13605;SDS011;6874;52.084;5.090;2023-04-25T00:37:36;7.80;;;7.60;;
13605;SDS011;6874;52.084;5.090;2023-04-25T00:40:03;9.03;;;8.73;;
13605;SDS011;6874;52.084;5.090;2023-04-25T00:42:31;7.90;;;7.70;;
13605;SDS011;6874;52.084;5.090;2023-04-25T00:44:57;8.67;;;8.47;;
13605;SDS011;6874;52.084;5.090;2023-04-25T00:47:24;8.80;;;8.50;;
13605;SDS011;6874;52.084;5.090;2023-04-25T00:49:50;9.33;;;9.03;;
13605;SDS011;6874;52.084;5.090;2023-04-25T00:52:16;9.37;;;9.07;;
13605;SDS011;6874;52.084;5.090;2023-04-25T00:54:42;10.80;;;10.50;;
13605;SDS011;6874;52.084;5.090;2023-04-25T00:57:07;9.40;;;9.10;;
13605;SDS011;6874;52.084;5.090;2023-04-25T00:59:33;10.50;;;10.20;;
13605;SDS011;6874;52.084;5.090;2023-04-25T01:01:59;10.63;;;10.33;;
13605;SDS011;6874;52.084;5.090;2023-04-25T01:04:25;9.93;;;9.63;;
13605;SDS011;6874;52.084;5.090;2023-04-25T01:06:52;10.50;;;10.20;;
13605;SDS011;6874;52.084;5.090;2023-04-25T01:09:18;11.00;;;10.70;;
13605;SDS011;6874;52.084;5.090;2023-04-25T01:11:45;11.03;;;10.73;;
13605;SDS011;6874;52.084;5.090;2023-04-25T01:14:10;11.77;;;11.43;;
13605;SDS011;6874;52.084;5.090;2023-04-25T01:16:36;11.23;;;10.93;;
13605;SDS011;6874;52.084;5.090;2023-04-25T01:19:04;11.83;;;11.50;;
13605;SDS011;6874;52.084;5.090;2023-04-25T01:21:34;11.40;;;11.10;;
13605;SDS011;6874;52.084;5.090;2023-04-25T01:23:59;12.73;;;12.33;;
13605;SDS011;6874;52.084;5.090;2023-04-25T01:26:25;12.07;;;11.67;;
13605;SDS011;6874;52.084;5.090;2023-04-25T01:28:51;12.17;;;11.77;;
13605;SDS011;6874;52.084;5.090;2023-04-25T01:31:17;11.30;;;11.00;;
13605;SDS011;6874;52.084;5.090;2023-04-25T01:33:44;12.10;;;11.70;;
13605;SDS011;6874;52.084;5.090;2023-04-25T01:36:10;12.90;;;12.50;;
13605;SDS011;6874;52.084;5.090;2023-04-25T01:38:36;13.30;;;12.90;;
13605;SDS011;6874;52.084;5.090;2023-04-25T01:41:01;13.63;;;13.23;;
13605;SDS011;6874;52.084;5.090;2023-04-25T01:43:27;13.10;;;12.70;;
13605;SDS011;6874;52.084;5.090;2023-04-25T01:45:53;12.63;;;12.23;;
13605;SDS011;6874;52.084;5.090;2023-04-25T01:48:19;13.00;;;12.60;;
13605;SDS011;6874;52.084;5.090;2023-04-25T01:50:45;13.93;;;13.53;;
13605;SDS011;6874;52.084;5.090;2023-04-25T01:53:11;13.80;;;13.40;;
13605;SDS011;6874;52.084;5.090;2023-04-25T01:55:38;14.00;;;13.60;;
13605;SDS011;6874;52.084;5.090;2023-04-25T01:58:04;14.67;;;14.23;;
13605;SDS011;6874;52.084;5.090;2023-04-25T02:00:37;13.13;;;12.73;;
13605;SDS011;6874;52.084;5.090;2023-04-25T02:03:04;14.63;;;14.23;;
13605;SDS011;6874;52.084;5.090;2023-04-25T02:05:36;14.13;;;13.73;;
13605;SDS011;6874;52.084;5.090;2023-04-25T02:08:04;14.37;;;13.97;;
13605;SDS011;6874;52.084;5.090;2023-04-25T02:10:30;13.30;;;12.90;;
13605;SDS011;6874;52.084;5.090;2023-04-25T02:12:56;15.23;;;14.73;;
13605;SDS011;6874;52.084;5.090;2023-04-25T02:15:22;13.40;;;13.00;;
13605;SDS011;6874;52.084;5.090;2023-04-25T02:17:48;13.83;;;13.43;;
13605;SDS011;6874;52.084;5.090;2023-04-25T02:20:13;13.43;;;13.03;;
13605;SDS011;6874;52.084;5.090;2023-04-25T02:22:40;12.90;;;12.50;;
13605;SDS011;6874;52.084;5.090;2023-04-25T02:25:07;13.57;;;13.17;;
13605;SDS011;6874;52.084;5.090;2023-04-25T02:27:34;12.93;;;12.53;;
13605;SDS011;6874;52.084;5.090;2023-04-25T02:29:59;13.33;;;12.93;;
13605;SDS011;6874;52.084;5.090;2023-04-25T02:32:26;11.87;;;11.47;;
13605;SDS011;6874;52.084;5.090;2023-04-25T02:34:52;12.73;;;12.33;;
13605;SDS011;6874;52.084;5.090;2023-04-25T02:37:17;12.23;;;11.83;;
13605;SDS011;6874;52.084;5.090;2023-04-25T02:39:43;12.80;;;12.40;;
13605;SDS011;6874;52.084;5.090;2023-04-25T02:42:08;12.13;;;11.73;;
13605;SDS011;6874;52.084;5.090;2023-04-25T02:44:34;11.50;;;11.20;;
13605;SDS011;6874;52.084;5.090;2023-04-25T02:46:59;11.17;;;10.87;;
13605;SDS011;6874;52.084;5.090;2023-04-25T02:49:25;11.93;;;11.53;;
13605;SDS011;6874;52.084;5.090;2023-04-25T02:51:50;12.07;;;11.67;;
13605;SDS011;6874;52.084;5.090;2023-04-25T02:54:16;11.97;;;11.60;;
13605;SDS011;6874;52.084;5.090;2023-04-25T02:56:41;11.30;;;11.00;;
13605;SDS011;6874;52.084;5.090;2023-04-25T02:59:07;10.67;;;10.37;;
13605;SDS011;6874;52.084;5.090;2023-04-25T03:01:32;10.43;;;10.13;;
13605;SDS011;6874;52.084;5.090;2023-04-25T03:03:58;10.80;;;10.50;;
13605;SDS011;6874;52.084;5.090;2023-04-25T03:06:23;9.57;;;9.27;;
13605;SDS011;6874;52.084;5.090;2023-04-25T03:08:49;10.07;;;9.77;;
13605;SDS011;6874;52.084;5.090;2023-04-25T03:11:15;9.53;;;9.23;;
13605;SDS011;6874;52.084;5.090;2023-04-25T03:13:40;9.20;;;8.90;;
13605;SDS011;6874;52.084;5.090;2023-04-25T03:16:06;9.83;;;9.53;;
13605;SDS011;6874;52.084;5.090;2023-04-25T03:18:31;9.43;;;9.13;;
13605;SDS011;6874;52.084;5.090;2023-04-25T03:20:57;9.10;;;8.80;;
13605;SDS011;6874;52.084;5.090;2023-04-25T03:23:22;9.23;;;8.93;;
13605;SDS011;6874;52.084;5.090;2023-04-25T03:25:48;8.53;;;8.27;;
13605;SDS011;6874;52.084;5.090;2023-04-25T03:28:14;8.00;;;7.80;;
13605;SDS011;6874;52.084;5.090;2023-04-25T03:30:39;7.37;;;7.17;;
13605;SDS011;6874;52.084;5.090;2023-04-25T03:33:05;7.13;;;6.93;;
13605;SDS011;6874;52.084;5.090;2023-04-25T03:35:30;8.17;;;7.93;;
13605;SDS011;6874;52.084;5.090;2023-04-25T03:37:56;7.50;;;7.30;;
13605;SDS011;6874;52.084;5.090;2023-04-25T03:40:22;7.77;;;7.57;;
13605;SDS011;6874;52.084;5.090;2023-04-25T03:42:47;7.33;;;7.13;;
13605;SDS011;6874;52.084;5.090;2023-04-25T03:45:13;7.40;;;7.20;;
13605;SDS011;6874;52.084;5.090;2023-04-25T03:47:38;7.43;;;7.23;;
13605;SDS011;6874;52.084;5.090;2023-04-25T03:50:04;7.77;;;7.57;;
13605;SDS011;6874;52.084;5.090;2023-04-25T03:52:30;7.47;;;7.27;;
13605;SDS011;6874;52.084;5.090;2023-04-25T03:54:56;7.73;;;7.53;;
13605;SDS011;6874;52.084;5.090;2023-04-25T03:57:21;7.50;;;7.30;;
13605;SDS011;6874;52.084;5.090;2023-04-25T03:59:47;7.47;;;7.27;;
13605;SDS011;6874;52.084;5.090;2023-04-25T04:02:12;7.60;;;7.40;;
13605;SDS011;6874;52.084;5.090;2023-04-25T04:04:38;7.37;;;7.17;;
13605;SDS011;6874;52.084;5.090;2023-04-25T04:07:03;7.30;;;7.10;;
13605;SDS011;6874;52.084;5.090;2023-04-25T04:09:29;8.80;;;8.50;;
13605;SDS011;6874;52.084;5.090;2023-04-25T04:11:54;7.23;;;7.03;;
13605;SDS011;6874;52.084;5.090;2023-04-25T04:14:20;8.10;;;7.90;;
13605;SDS011;6874;52.084;5.090;2023-04-25T04:16:46;8.00;;;7.80;;
13605;SDS011;6874;52.084;5.090;2023-04-25T04:19:11;7.53;;;7.33;;
13605;SDS011;6874;52.084;5.090;2023-04-25T04:21:37;8.07;;;7.87;;
13605;SDS011;6874;52.084;5.090;2023-04-25T04:24:02;7.50;;;7.30;;
13605;SDS011;6874;52.084;5.090;2023-04-25T04:26:28;7.77;;;7.57;;
13605;SDS011;6874;52.084;5.090;2023-04-25T04:28:53;8.13;;;7.93;;
13605;SDS011;6874;52.084;5.090;2023-04-25T04:31:20;8.10;;;7.90;;
13605;SDS011;6874;52.084;5.090;2023-04-25T04:33:46;8.00;;;7.80;;
13605;SDS011;6874;52.084;5.090;2023-04-25T04:36:12;8.67;;;8.43;;
13605;SDS011;6874;52.084;5.090;2023-04-25T04:38:37;8.43;;;8.23;;
13605;SDS011;6874;52.084;5.090;2023-04-25T04:41:05;8.23;;;8.03;;
13605;SDS011;6874;52.084;5.090;2023-04-25T04:43:30;8.83;;;8.57;;
13605;SDS011;6874;52.084;5.090;2023-04-25T04:45:58;7.90;;;7.70;;
13605;SDS011;6874;52.084;5.090;2023-04-25T04:48:25;9.33;;;9.03;;
13605;SDS011;6874;52.084;5.090;2023-04-25T04:50:51;8.20;;;8.00;;
13605;SDS011;6874;52.084;5.090;2023-04-25T04:53:16;8.37;;;8.17;;
13605;SDS011;6874;52.084;5.090;2023-04-25T04:55:42;8.40;;;8.20;;
13605;SDS011;6874;52.084;5.090;2023-04-25T04:58:08;8.30;;;8.10;;
13605;SDS011;6874;52.084;5.090;2023-04-25T05:00:33;8.70;;;8.50;;
13605;SDS011;6874;52.084;5.090;2023-04-25T05:02:59;8.37;;;8.17;;
13605;SDS011;6874;52.084;5.090;2023-04-25T05:05:25;8.70;;;8.50;;
13605;SDS011;6874;52.084;5.090;2023-04-25T05:07:51;8.33;;;8.13;;
13605;SDS011;6874;52.084;5.090;2023-04-25T05:10:17;7.97;;;7.77;;
13605;SDS011;6874;52.084;5.090;2023-04-25T05:12:43;7.83;;;7.63;;
13605;SDS011;6874;52.084;5.090;2023-04-25T05:15:09;7.63;;;7.43;;
13605;SDS011;6874;52.084;5.090;2023-04-25T05:17:35;7.67;;;7.47;;
13605;SDS011;6874;52.084;5.090;2023-04-25T05:20:01;8.53;;;8.30;;
13605;SDS011;6874;52.084;5.090;2023-04-25T05:22:26;8.00;;;7.80;;
13605;SDS011;6874;52.084;5.090;2023-04-25T05:24:52;8.10;;;7.90;;
13605;SDS011;6874;52.084;5.090;2023-04-25T05:27:18;8.33;;;8.13;;
13605;SDS011;6874;52.084;5.090;2023-04-25T05:29:44;8.27;;;8.07;;
13605;SDS011;6874;52.084;5.090;2023-04-25T05:32:10;8.73;;;8.50;;
13605;SDS011;6874;52.084;5.090;2023-04-25T05:34:36;8.20;;;8.00;;
13605;SDS011;6874;52.084;5.090;2023-04-25T05:37:01;8.07;;;7.87;;
13605;SDS011;6874;52.084;5.090;2023-04-25T05:39:27;8.10;;;7.90;;
13605;SDS011;6874;52.084;5.090;2023-04-25T05:41:53;8.77;;;8.53;;
13605;SDS011;6874;52.084;5.090;2023-04-25T05:44:19;9.00;;;8.70;;
13605;SDS011;6874;52.084;5.090;2023-04-25T05:46:44;7.50;;;7.30;;
13605;SDS011;6874;52.084;5.090;2023-04-25T05:49:10;7.97;;;7.77;;
13605;SDS011;6874;52.084;5.090;2023-04-25T05:51:35;8.20;;;8.00;;
13605;SDS011;6874;52.084;5.090;2023-04-25T05:54:01;7.63;;;7.43;;
13605;SDS011;6874;52.084;5.090;2023-04-25T05:56:26;7.33;;;7.13;;
13605;SDS011;6874;52.084;5.090;2023-04-25T05:58:52;7.93;;;7.73;;
13605;SDS011;6874;52.084;5.090;2023-04-25T06:01:18;7.57;;;7.37;;
13605;SDS011;6874;52.084;5.090;2023-04-25T06:03:43;7.80;;;7.60;;
13605;SDS011;6874;52.084;5.090;2023-04-25T06:06:09;7.87;;;7.67;;
13605;SDS011;6874;52.084;5.090;2023-04-25T06:08:36;7.80;;;7.60;;
13605;SDS011;6874;52.084;5.090;2023-04-25T06:11:02;7.90;;;7.70;;
13605;SDS011;6874;52.084;5.090;2023-04-25T06:13:28;7.97;;;7.77;;
13605;SDS011;6874;52.084;5.090;2023-04-25T06:15:53;9.00;;;8.70;;
13605;SDS011;6874;52.084;5.090;2023-04-25T06:18:19;8.40;;;8.20;;
13605;SDS011;6874;52.084;5.090;2023-04-25T06:20:45;8.40;;;8.20;;
13605;SDS011;6874;52.084;5.090;2023-04-25T06:23:10;8.73;;;8.47;;
13605;SDS011;6874;52.084;5.090;2023-04-25T06:25:36;8.40;;;8.20;;
13605;SDS011;6874;52.084;5.090;2023-04-25T06:28:01;8.10;;;7.90;;
13605;SDS011;6874;52.084;5.090;2023-04-25T06:30:27;8.20;;;8.00;;
13605;SDS011;6874;52.084;5.090;2023-04-25T06:32:52;8.10;;;7.90;;
13605;SDS011;6874;52.084;5.090;2023-04-25T06:35:18;8.97;;;8.70;;
13605;SDS011;6874;52.084;5.090;2023-04-25T06:37:44;9.77;;;9.47;;
13605;SDS011;6874;52.084;5.090;2023-04-25T06:40:10;8.87;;;8.60;;
13605;SDS011;6874;52.084;5.090;2023-04-25T06:42:37;9.27;;;8.97;;
13605;SDS011;6874;52.084;5.090;2023-04-25T06:45:02;9.17;;;8.87;;
13605;SDS011;6874;52.084;5.090;2023-04-25T06:47:28;10.03;;;9.73;;
13605;SDS011;6874;52.084;5.090;2023-04-25T06:49:54;10.23;;;9.93;;
13605;SDS011;6874;52.084;5.090;2023-04-25T06:52:20;9.97;;;9.67;;
13605;SDS011;6874;52.084;5.090;2023-04-25T06:54:46;10.43;;;10.13;;
13605;SDS011;6874;52.084;5.090;2023-04-25T06:57:11;11.63;;;11.33;;
13605;SDS011;6874;52.084;5.090;2023-04-25T06:59:40;12.53;;;12.13;;
13605;SDS011;6874;52.084;5.090;2023-04-25T07:02:06;14.37;;;13.97;;
13605;SDS011;6874;52.084;5.090;2023-04-25T07:04:31;15.87;;;15.37;;
13605;SDS011;6874;52.084;5.090;2023-04-25T07:06:57;18.23;;;17.63;;
13605;SDS011;6874;52.084;5.090;2023-04-25T07:09:23;18.43;;;17.83;;
13605;SDS011;6874;52.084;5.090;2023-04-25T07:11:48;18.63;;;18.03;;
13605;SDS011;6874;52.084;5.090;2023-04-25T07:14:14;18.23;;;17.67;;
13605;SDS011;6874;52.084;5.090;2023-04-25T07:16:40;17.67;;;17.17;;
13605;SDS011;6874;52.084;5.090;2023-04-25T07:19:05;17.77;;;17.20;;
13605;SDS011;6874;52.084;5.090;2023-04-25T07:21:31;17.23;;;16.73;;
13605;SDS011;6874;52.084;5.090;2023-04-25T07:23:57;18.67;;;18.07;;
13605;SDS011;6874;52.084;5.090;2023-04-25T07:26:23;19.33;;;18.73;;
13605;SDS011;6874;52.084;5.090;2023-04-25T07:28:48;17.67;;;17.10;;
13605;SDS011;6874;52.084;5.090;2023-04-25T07:31:16;16.53;;;16.03;;
13605;SDS011;6874;52.084;5.090;2023-04-25T07:33:43;16.13;;;15.63;;
13605;SDS011;6874;52.084;5.090;2023-04-25T07:36:12;15.10;;;14.63;;
13605;SDS011;6874;52.084;5.090;2023-04-25T07:38:48;14.10;;;13.70;;
13605;SDS011;6874;52.084;5.090;2023-04-25T07:41:14;12.67;;;12.27;;
13605;SDS011;6874;52.084;5.090;2023-04-25T07:43:40;13.27;;;12.87;;
13605;SDS011;6874;52.084;5.090;2023-04-25T07:46:05;12.47;;;12.07;;
13605;SDS011;6874;52.084;5.090;2023-04-25T07:48:31;13.43;;;13.03;;
13605;SDS011;6874;52.084;5.090;2023-04-25T07:50:56;13.57;;;13.17;;
13605;SDS011;6874;52.084;5.090;2023-04-25T07:53:22;11.97;;;11.60;;
13605;SDS011;6874;52.084;5.090;2023-04-25T07:55:47;12.70;;;12.30;;
13605;SDS011;6874;52.084;5.090;2023-04-25T07:58:13;15.37;;;14.87;;
13605;SDS011;6874;52.084;5.090;2023-04-25T08:00:40;12.50;;;12.10;;
13605;SDS011;6874;52.084;5.090;2023-04-25T08:03:06;12.83;;;12.43;;
13605;SDS011;6874;52.084;5.090;2023-04-25T08:05:32;10.70;;;10.40;;
13605;SDS011;6874;52.084;5.090;2023-04-25T08:07:58;10.43;;;10.13;;
13605;SDS011;6874;52.084;5.090;2023-04-25T08:10:24;9.77;;;9.47;;
13605;SDS011;6874;52.084;5.090;2023-04-25T08:12:49;10.30;;;10.00;;
13605;SDS011;6874;52.084;5.090;2023-04-25T08:15:15;9.07;;;8.77;;
13605;SDS011;6874;52.084;5.090;2023-04-25T08:17:40;8.97;;;8.67;;
13605;SDS011;6874;52.084;5.090;2023-04-25T08:20:06;9.33;;;9.03;;
13605;SDS011;6874;52.084;5.090;2023-04-25T08:22:32;8.70;;;8.50;;
13605;SDS011;6874;52.084;5.090;2023-04-25T08:24:58;8.37;;;8.17;;
13605;SDS011;6874;52.084;5.090;2023-04-25T08:27:24;7.87;;;7.57;;
13605;SDS011;6874;52.084;5.090;2023-04-25T08:29:50;7.70;;;7.50;;
13605;SDS011;6874;52.084;5.090;2023-04-25T08:32:16;6.50;;;6.30;;
13605;SDS011;6874;52.084;5.090;2023-04-25T08:34:41;6.23;;;6.03;;
13605;SDS011;6874;52.084;5.090;2023-04-25T08:37:08;6.30;;;6.10;;
13605;SDS011;6874;52.084;5.090;2023-04-25T08:39:37;7.13;;;6.93;;
13605;SDS011;6874;52.084;5.090;2023-04-25T08:42:04;6.37;;;6.17;;
13605;SDS011;6874;52.084;5.090;2023-04-25T08:44:35;6.57;;;6.37;;
13605;SDS011;6874;52.084;5.090;2023-04-25T08:47:03;6.77;;;6.57;;
13605;SDS011;6874;52.084;5.090;2023-04-25T08:49:31;5.87;;;5.67;;
13605;SDS011;6874;52.084;5.090;2023-04-25T08:51:59;6.30;;;6.10;;
13605;SDS011;6874;52.084;5.090;2023-04-25T08:54:26;7.03;;;6.83;;
13605;SDS011;6874;52.084;5.090;2023-04-25T08:56:54;6.60;;;6.40;;
13605;SDS011;6874;52.084;5.090;2023-04-25T08:59:20;7.17;;;6.97;;
13605;SDS011;6874;52.084;5.090;2023-04-25T09:01:47;7.43;;;7.23;;
13605;SDS011;6874;52.084;5.090;2023-04-25T09:04:14;7.60;;;7.40;;
13605;SDS011;6874;52.084;5.090;2023-04-25T09:06:40;6.80;;;6.60;;
13605;SDS011;6874;52.084;5.090;2023-04-25T09:09:07;6.93;;;6.73;;
13605;SDS011;6874;52.084;5.090;2023-04-25T09:11:33;6.57;;;6.37;;
13605;SDS011;6874;52.084;5.090;2023-04-25T09:14:10;7.63;;;7.43;;
13605;SDS011;6874;52.084;5.090;2023-04-25T09:21:58;10.13;;;9.83;;
13605;SDS011;6874;52.084;5.090;2023-04-25T09:27:09;15.53;;;15.03;;
13605;SDS011;6874;52.084;5.090;2023-04-25T09:29:39;15.93;;;15.43;;
13605;SDS011;6874;52.084;5.090;2023-04-25T09:32:14;16.97;;;16.47;;
13605;SDS011;6874;52.084;5.090;2023-04-25T09:34:46;15.43;;;14.97;;
13605;SDS011;6874;52.084;5.090;2023-04-25T09:37:19;18.50;;;17.93;;
13605;SDS011;6874;52.084;5.090;2023-04-25T09:39:50;21.10;;;20.43;;
13605;SDS011;6874;52.084;5.090;2023-04-25T09:42:24;19.43;;;18.83;;
13605;SDS011;6874;52.084;5.090;2023-04-25T09:44:52;18.13;;;17.57;;
13605;SDS011;6874;52.084;5.090;2023-04-25T09:47:19;18.67;;;18.07;;
13605;SDS011;6874;52.084;5.090;2023-04-25T09:49:47;15.40;;;14.90;;
13605;SDS011;6874;52.084;5.090;2023-04-25T09:52:20;15.17;;;14.67;;
13605;SDS011;6874;52.084;5.090;2023-04-25T09:54:50;17.07;;;16.57;;
13605;SDS011;6874;52.084;5.090;2023-04-25T09:57:17;13.87;;;13.47;;
13605;SDS011;6874;52.084;5.090;2023-04-25T09:59:53;13.47;;;13.07;;
13605;SDS011;6874;52.084;5.090;2023-04-25T10:02:23;14.00;;;13.60;;
13605;SDS011;6874;52.084;5.090;2023-04-25T10:04:51;14.63;;;14.20;;
13605;SDS011;6874;52.084;5.090;2023-04-25T10:07:20;15.57;;;15.10;;
13605;SDS011;6874;52.084;5.090;2023-04-25T10:09:50;9.97;;;9.67;;
13605;SDS011;6874;52.084;5.090;2023-04-25T10:12:20;9.60;;;9.30;;
13605;SDS011;6874;52.084;5.090;2023-04-25T10:14:46;10.17;;;9.87;;
13605;SDS011;6874;52.084;5.090;2023-04-25T10:17:12;8.93;;;8.67;;
13605;SDS011;6874;52.084;5.090;2023-04-25T10:19:39;9.43;;;9.13;;
13605;SDS011;6874;52.084;5.090;2023-04-25T10:22:08;8.83;;;8.57;;
13605;SDS011;6874;52.084;5.090;2023-04-25T10:24:39;8.80;;;8.57;;
13605;SDS011;6874;52.084;5.090;2023-04-25T10:27:06;9.27;;;8.97;;
13605;SDS011;6874;52.084;5.090;2023-04-25T10:29:33;14.17;;;13.77;;
13605;SDS011;6874;52.084;5.090;2023-04-25T10:32:00;15.23;;;14.77;;
13605;SDS011;6874;52.084;5.090;2023-04-25T10:34:38;16.70;;;16.20;;
13605;SDS011;6874;52.084;5.090;2023-04-25T10:37:05;17.70;;;17.20;;
13605;SDS011;6874;52.084;5.090;2023-04-25T10:39:34;20.50;;;19.90;;
13605;SDS011;6874;52.084;5.090;2023-04-25T10:42:01;25.37;;;24.57;;
13605;SDS011;6874;52.084;5.090;2023-04-25T10:44:37;22.53;;;21.83;;
13605;SDS011;6874;52.084;5.090;2023-04-25T10:47:07;23.70;;;22.97;;
13605;SDS011;6874;52.084;5.090;2023-04-25T10:49:35;20.97;;;20.33;;
13605;SDS011;6874;52.084;5.090;2023-04-25T10:52:11;19.57;;;18.97;;
13605;SDS011;6874;52.084;5.090;2023-04-25T10:54:41;19.53;;;18.93;;
13605;SDS011;6874;52.084;5.090;2023-04-25T10:57:25;13.40;;;13.00;;
13605;SDS011;6874;52.084;5.090;2023-04-25T11:02:53;12.33;;;11.97;;
13605;SDS011;6874;52.084;5.090;2023-04-25T11:05:30;16.60;;;16.10;;
13605;SDS011;6874;52.084;5.090;2023-04-25T11:07:57;15.77;;;15.27;;
13605;SDS011;6874;52.084;5.090;2023-04-25T11:10:27;18.73;;;18.17;;
13605;SDS011;6874;52.084;5.090;2023-04-25T11:12:54;35.87;;;34.70;;
13605;SDS011;6874;52.084;5.090;2023-04-25T11:15:20;41.60;;;40.23;;
13605;SDS011;6874;52.084;5.090;2023-04-25T11:17:46;24.33;;;23.57;;
13605;SDS011;6874;52.084;5.090;2023-04-25T11:20:12;21.40;;;20.73;;
13605;SDS011;6874;52.084;5.090;2023-04-25T11:22:39;19.77;;;19.17;;
13605;SDS011;6874;52.084;5.090;2023-04-25T11:25:09;21.23;;;20.57;;
13605;SDS011;6874;52.084;5.090;2023-04-25T11:27:55;23.00;;;22.27;;
13605;SDS011;6874;52.084;5.090;2023-04-25T11:30:23;20.57;;;19.93;;
13605;SDS011;6874;52.084;5.090;2023-04-25T11:32:49;19.63;;;19.03;;
13605;SDS011;6874;52.084;5.090;2023-04-25T11:35:16;19.53;;;18.93;;
13605;SDS011;6874;52.084;5.090;2023-04-25T11:37:43;19.30;;;18.70;;
13605;SDS011;6874;52.084;5.090;2023-04-25T11:40:10;21.40;;;20.73;;
13605;SDS011;6874;52.084;5.090;2023-04-25T11:42:39;25.50;;;24.67;;
13605;SDS011;6874;52.084;5.090;2023-04-25T11:45:09;25.83;;;25.00;;
13605;SDS011;6874;52.084;5.090;2023-04-25T11:47:35;34.07;;;33.00;;
13605;SDS011;6874;52.084;5.090;2023-04-25T11:50:02;42.43;;;41.07;;
13605;SDS011;6874;52.084;5.090;2023-04-25T11:52:38;46.00;;;44.50;;
13605;SDS011;6874;52.084;5.090;2023-04-25T11:55:18;36.23;;;35.03;;
13605;SDS011;6874;52.084;5.090;2023-04-25T11:57:46;42.50;;;41.07;;
13605;SDS011;6874;52.084;5.090;2023-04-25T12:00:19;63.60;;;61.43;;
13605;SDS011;6874;52.084;5.090;2023-04-25T12:02:46;79.70;;;77.00;;
13605;SDS011;6874;52.084;5.090;2023-04-25T12:05:13;87.03;;;84.13;;
13605;SDS011;6874;52.084;5.090;2023-04-25T12:07:42;121.83;;;117.80;;
13605;SDS011;6874;52.084;5.090;2023-04-25T12:10:10;92.37;;;89.37;;
13605;SDS011;6874;52.084;5.090;2023-04-25T12:12:38;81.93;;;79.23;;
13605;SDS011;6874;52.084;5.090;2023-04-25T12:15:13;71.07;;;68.73;;
13605;SDS011;6874;52.084;5.090;2023-04-25T12:17:46;97.03;;;93.83;;
13605;SDS011;6874;52.084;5.090;2023-04-25T12:20:17;110.50;;;106.90;;
13605;SDS011;6874;52.084;5.090;2023-04-25T12:22:47;117.57;;;113.73;;
13605;SDS011;6874;52.084;5.090;2023-04-25T12:25:14;134.80;;;130.40;;
13605;SDS011;6874;52.084;5.090;2023-04-25T12:28:13;151.53;;;146.53;;
13605;SDS011;6874;52.084;5.090;2023-04-25T12:30:59;209.77;;;202.87;;
13605;SDS011;6874;52.084;5.090;2023-04-25T12:33:30;236.30;;;228.50;;
13605;SDS011;6874;52.084;5.090;2023-04-25T12:35:57;263.40;;;254.43;;
13605;SDS011;6874;52.084;5.090;2023-04-25T12:38:27;265.93;;;256.73;;
13605;SDS011;6874;52.084;5.090;2023-04-25T12:40:54;147.53;;;142.47;;
13605;SDS011;6874;52.084;5.090;2023-04-25T12:43:20;130.77;;;126.30;;
13605;SDS011;6874;52.084;5.090;2023-04-25T12:45:54;117.20;;;113.23;;
13605;SDS011;6874;52.084;5.090;2023-04-25T12:48:20;106.93;;;103.30;;
13605;SDS011;6874;52.084;5.090;2023-04-25T12:50:47;125.03;;;120.80;;
13605;SDS011;6874;52.084;5.090;2023-04-25T12:53:14;123.20;;;119.03;;
13605;SDS011;6874;52.084;5.090;2023-04-25T12:55:40;119.47;;;115.43;;
13605;SDS011;6874;52.084;5.090;2023-04-25T12:58:06;108.03;;;104.37;;
13605;SDS011;6874;52.084;5.090;2023-04-25T13:00:32;130.23;;;125.73;;
13605;SDS011;6874;52.084;5.090;2023-04-25T13:02:58;140.23;;;135.43;;
13605;SDS011;6874;52.084;5.090;2023-04-25T13:05:24;132.27;;;127.77;;
13605;SDS011;6874;52.084;5.090;2023-04-25T13:07:50;134.00;;;129.43;;
13605;SDS011;6874;52.084;5.090;2023-04-25T13:10:16;133.07;;;128.57;;
13605;SDS011;6874;52.084;5.090;2023-04-25T13:12:42;114.40;;;110.50;;
13605;SDS011;6874;52.084;5.090;2023-04-25T13:15:08;99.17;;;95.87;;
13605;SDS011;6874;52.084;5.090;2023-04-25T13:17:36;102.13;;;98.77;;
13605;SDS011;6874;52.084;5.090;2023-04-25T13:20:03;135.70;;;131.20;;
13605;SDS011;6874;52.084;5.090;2023-04-25T13:22:33;153.77;;;148.60;;
13605;SDS011;6874;52.084;5.090;2023-04-25T13:25:02;185.87;;;179.57;;
13605;SDS011;6874;52.084;5.090;2023-04-25T13:27:28;184.03;;;177.70;;
13605;SDS011;6874;52.084;5.090;2023-04-25T13:29:53;153.73;;;148.33;;
13605;SDS011;6874;52.084;5.090;2023-04-25T13:32:19;161.77;;;156.13;;
13605;SDS011;6874;52.084;5.090;2023-04-25T13:34:45;146.57;;;141.47;;
13605;SDS011;6874;52.084;5.090;2023-04-25T13:37:10;128.13;;;123.73;;
13605;SDS011;6874;52.084;5.090;2023-04-25T13:39:36;103.27;;;99.77;;
13605;SDS011;6874;52.084;5.090;2023-04-25T13:42:02;86.00;;;83.10;;
13605;SDS011;6874;52.084;5.090;2023-04-25T13:44:28;78.83;;;76.23;;
13605;SDS011;6874;52.084;5.090;2023-04-25T13:46:53;83.53;;;80.77;;
13605;SDS011;6874;52.084;5.090;2023-04-25T13:49:19;85.37;;;82.53;;
13605;SDS011;6874;52.084;5.090;2023-04-25T13:51:45;85.93;;;83.07;;
13605;SDS011;6874;52.084;5.090;2023-04-25T13:54:10;97.50;;;94.27;;
13605;SDS011;6874;52.084;5.090;2023-04-25T13:56:36;86.37;;;83.47;;
13605;SDS011;6874;52.084;5.090;2023-04-25T13:59:01;74.77;;;72.27;;
13605;SDS011;6874;52.084;5.090;2023-04-25T14:01:27;64.23;;;62.07;;
13605;SDS011;6874;52.084;5.090;2023-04-25T14:03:55;58.03;;;56.13;;
13605;SDS011;6874;52.084;5.090;2023-04-25T14:06:20;51.70;;;50.00;;
13605;SDS011;6874;52.084;5.090;2023-04-25T14:08:49;51.40;;;49.67;;
13605;SDS011;6874;52.084;5.090;2023-04-25T14:11:15;55.90;;;54.00;;
13605;SDS011;6874;52.084;5.090;2023-04-25T14:13:42;59.33;;;57.33;;
13605;SDS011;6874;52.084;5.090;2023-04-25T14:16:09;62.53;;;60.47;;
13605;SDS011;6874;52.084;5.090;2023-04-25T14:18:34;59.23;;;57.23;;
13605;SDS011;6874;52.084;5.090;2023-04-25T14:21:00;55.47;;;53.60;;
13605;SDS011;6874;52.084;5.090;2023-04-25T14:23:26;47.53;;;45.93;;
13605;SDS011;6874;52.084;5.090;2023-04-25T14:25:51;44.30;;;42.80;;
13605;SDS011;6874;52.084;5.090;2023-04-25T14:28:17;49.67;;;47.97;;
13605;SDS011;6874;52.084;5.090;2023-04-25T14:30:42;46.70;;;45.10;;
13605;SDS011;6874;52.084;5.090;2023-04-25T14:33:08;88.53;;;85.60;;
13605;SDS011;6874;52.084;5.090;2023-04-25T14:35:34;76.37;;;73.87;;
13605;SDS011;6874;52.084;5.090;2023-04-25T14:38:00;57.10;;;55.20;;
13605;SDS011;6874;52.084;5.090;2023-04-25T14:40:26;46.27;;;44.77;;
13605;SDS011;6874;52.084;5.090;2023-04-25T14:42:51;41.77;;;40.43;;
13605;SDS011;6874;52.084;5.090;2023-04-25T14:45:17;44.23;;;42.80;;
13605;SDS011;6874;52.084;5.090;2023-04-25T14:47:43;40.80;;;39.50;;
13605;SDS011;6874;52.084;5.090;2023-04-25T14:50:08;36.97;;;35.77;;
13605;SDS011;6874;52.084;5.090;2023-04-25T14:52:35;31.93;;;30.93;;